Cornfields, Arizona
Current Conditions -  °F | °C
As of 9:53 PM on Tuesday 25 Nov 2014 (Local Time) from KGUP Reporting Station
Clear Clear  
Wind Chill: 27°   Ceiling: Unl
Heat Index: 32°   Visibility: 10mi
Dew Point:   Wind: 5mph
Humidity: 26%   Direction: 270°W
Pressure: 30.38"   Gusts: NA
Location:  35.6053°N, 109.458°W
Report Text: KGUP 260453Z AUTO 27004KT 10SM CLR 00/M18 A3038 RMK AO2 SLP306 T00001178
Loading
Personal Weather Stations






























Interactive Weather Map New forecast layout! Learn more

10-Day Weather Forecast

Advertisements
Track Severe Weather on mobile